Trans Adriatic — C6YQ3 — position and weather

sailwx.info

Track history (hours):
 
Tides and Currents Weather Stations Pressure Air Temp Water Temp Dewpoint Dewpoint Depression Visibility Wind Speed Wind Dir Waves Ship Positions

Trans Adriatic

Last reported at 2018-Feb-23 23:00 UTC. Time now 2018-Feb-24 00:08 UTC.
Position N 51°36' E 003°22'.

Length 123 m; draft 7.5 m.

Type: Tanker. MMSI: 311041700.

Date/timePositionNaut miles runAvg speedWind from/ knotsBaromVisibWave heightAir tempDewpointWater temp
2018-Feb-23 23:00N 51°36' E 003°22'612.1
2018-Feb-23 22:30N 51°31' E 003°26'613.0
2018-Feb-23 22:01N 51°27' E 003°34'611.9
2018-Feb-23 21:30N 51°24' E 003°43'713.1
2018-Feb-23 21:00N 51°21' E 003°52'713.2
2018-Feb-23 20:30N 51°26' E 003°58'5 9.2
2018-Feb-23 20:00N 51°23' E 004°03'510.0
2018-Feb-23 19:30N 51°24' E 004°11'4 8.7
2018-Feb-23 19:00N 51°21' E 004°16'1 1.5
2018-Feb-23 18:31N 51°21' E 004°17'0 0.0
2018-Feb-23 18:01N 51°21' E 004°17'0 0.5
2018-Feb-23 17:30N 51°21' E 004°18'2 4.3
2018-Feb-23 17:00N 51°19' E 004°19'3 5.3
2018-Feb-23 16:30N 51°16' E 004°20'1 2.3
2018-Feb-23 15:59N 51°15' E 004°22'0 0.0
2018-Feb-23 15:29N 51°15' E 004°22'0 0.0
2018-Feb-23 14:59N 51°15' E 004°22'0 0.0
2018-Feb-23 14:29N 51°15' E 004°22'0 0.0
2018-Feb-23 13:59N 51°15' E 004°22'0 0.0
2018-Feb-23 13:29N 51°15' E 004°22'0 0.0
2018-Feb-23 12:59N 51°15' E 004°22'0 0.0
2018-Feb-23 12:29N 51°15' E 004°22'0 0.0
2018-Feb-23 11:59N 51°15' E 004°22'0 0.0
2018-Feb-23 11:29N 51°15' E 004°22'0 0.0
2018-Feb-23 10:59N 51°15' E 004°22'0 0.0
2018-Feb-23 10:26N 51°15' E 004°22'0 0.0
2018-Feb-23 09:59N 51°15' E 004°22'0 0.0
2018-Feb-23 09:29N 51°15' E 004°22'0 0.0
2018-Feb-23 08:59N 51°15' E 004°22'0 0.0
2018-Feb-23 08:29N 51°15' E 004°22'0 0.0
2018-Feb-23 07:59N 51°15' E 004°22'0 0.0
2018-Feb-23 07:26N 51°15' E 004°22'0 0.0
2018-Feb-23 06:59N 51°15' E 004°22'0 0.0
2018-Feb-23 06:29N 51°15' E 004°22'0 0.0
2018-Feb-23 05:59N 51°15' E 004°22'0 0.0
2018-Feb-23 05:29N 51°15' E 004°22'0 0.0
2018-Feb-23 04:59N 51°15' E 004°22'0 0.0
2018-Feb-23 04:29N 51°15' E 004°22'0 0.0
2018-Feb-23 03:59N 51°15' E 004°22'0 0.0
2018-Feb-23 03:26N 51°15' E 004°22'0 0.0
2018-Feb-23 02:59N 51°15' E 004°22'0 0.0
2018-Feb-23 02:29N 51°15' E 004°22'0 0.0
2018-Feb-23 01:59N 51°15' E 004°22'0 0.0
2018-Feb-23 01:26N 51°15' E 004°22'0 0.0
2018-Feb-23 00:59N 51°15' E 004°22'0 0.0
2018-Feb-23 00:29N 51°15' E 004°22'0 0.0
2018-Feb-22 23:59N 51°15' E 004°22'0 0.0
2018-Feb-22 23:29N 51°15' E 004°22'0 0.0
2018-Feb-22 22:56N 51°15' E 004°22'0 0.0
2018-Feb-22 22:29N 51°15' E 004°22'0 0.0
2018-Feb-22 21:14N 51°15' E 004°22'0 0.0
2018-Feb-22 20:59N 51°15' E 004°22'0 0.0
2018-Feb-22 20:26N 51°15' E 004°22'0 0.0
2018-Feb-22 19:59N 51°15' E 004°22'0 0.0
2018-Feb-22 19:29N 51°15' E 004°22'0 0.0
2018-Feb-22 18:59N 51°15' E 004°22'0 0.0
2018-Feb-22 18:29N 51°15' E 004°22'0 0.0
2018-Feb-22 17:59N 51°15' E 004°22'0 0.0
2018-Feb-22 17:29N 51°15' E 004°22'0 0.0
2018-Feb-22 16:59N 51°15' E 004°22'0 0.0
2018-Feb-22 16:29N 51°15' E 004°22'0 0.0
2018-Feb-22 15:59N 51°15' E 004°22'0 0.0
2018-Feb-22 15:29N 51°15' E 004°22'0 0.0
2018-Feb-22 14:56N 51°15' E 004°22'0 0.0
2018-Feb-22 14:26N 51°15' E 004°22'0 0.0
2018-Feb-22 13:59N 51°15' E 004°22'0 0.0
2018-Feb-22 13:29N 51°15' E 004°22'0 0.0
2018-Feb-22 12:59N 51°15' E 004°22'0 0.0
2018-Feb-22 12:29N 51°15' E 004°22'0 0.0
2018-Feb-22 11:59N 51°15' E 004°22'0 0.0
2018-Feb-22 11:26N 51°15' E 004°22'0 0.0
2018-Feb-22 10:59N 51°15' E 004°22'0 0.0
2018-Feb-22 10:29N 51°15' E 004°22'0 0.0
2018-Feb-22 09:59N 51°15' E 004°22'0 0.0
2018-Feb-22 09:26N 51°15' E 004°22'0 0.0
2018-Feb-22 08:59N 51°15' E 004°22'0 0.0
2018-Feb-22 08:29N 51°15' E 004°22'0 0.0
2018-Feb-22 07:56N 51°15' E 004°22'0 0.0
2018-Feb-22 07:29N 51°15' E 004°22'0 0.0
2018-Feb-22 06:59N 51°15' E 004°22'0 0.0
2018-Feb-22 06:29N 51°15' E 004°22'0 0.0
2018-Feb-22 05:59N 51°15' E 004°22'0 0.0
2018-Feb-22 05:29N 51°15' E 004°22'0 0.0
2018-Feb-22 04:56N 51°15' E 004°22'0 0.0
2018-Feb-22 04:29N 51°15' E 004°22'0 0.0
2018-Feb-22 03:59N 51°15' E 004°22'0 0.0
2018-Feb-22 03:29N 51°15' E 004°22'0 0.0
2018-Feb-22 02:59N 51°15' E 004°22'0 0.0
2018-Feb-22 02:29N 51°15' E 004°22'0 0.0
2018-Feb-22 01:59N 51°15' E 004°22'0 0.0
2018-Feb-22 01:29N 51°15' E 004°22'0 0.0
2018-Feb-22 00:59N 51°15' E 004°22'0 0.0
2018-Feb-22 00:29N 51°15' E 004°22'0 0.0
2018-Feb-21 23:56N 51°15' E 004°22'0 0.0
2018-Feb-21 23:29N 51°15' E 004°22'0 0.0
2018-Feb-21 22:59N 51°15' E 004°22'0 0.0
2018-Feb-21 22:29N 51°15' E 004°22'0 0.0
2018-Feb-21 21:59N 51°15' E 004°22'0 0.0
2018-Feb-21 21:29N 51°15' E 004°22'0 0.0
2018-Feb-21 20:56N 51°15' E 004°22'0 0.0
2018-Feb-21 20:29N 51°15' E 004°22'0 0.0
2018-Feb-21 19:59N 51°15' E 004°22'0 0.0
2018-Feb-21 19:29N 51°15' E 004°22'0 0.0
2018-Feb-21 18:59N 51°15' E 004°22'0 0.0
2018-Feb-21 18:26N 51°15' E 004°22'0 0.0
2018-Feb-21 17:59N 51°15' E 004°22'0 0.0
2018-Feb-21 17:29N 51°15' E 004°22'0 0.0
2018-Feb-21 16:56N 51°15' E 004°22'0 0.0
2018-Feb-21 16:29N 51°15' E 004°22'0 0.0
2018-Feb-21 15:59N 51°15' E 004°22'0 0.0
2018-Feb-21 15:26N 51°15' E 004°22'0 0.0
2018-Feb-21 14:59N 51°15' E 004°22'0 0.0
2018-Feb-21 14:29N 51°15' E 004°22'0 0.0
2018-Feb-21 13:59N 51°15' E 004°22'0 0.0
2018-Feb-21 13:29N 51°15' E 004°22'0 0.0
2018-Feb-21 12:56N 51°15' E 004°22'0 0.0
2018-Feb-21 12:29N 51°15' E 004°22'0 0.0
2018-Feb-21 11:59N 51°15' E 004°22'0 0.0
2018-Feb-21 11:29N 51°15' E 004°22'0 0.0
2018-Feb-21 10:56N 51°15' E 004°22'0 0.0
2018-Feb-21 10:27N 51°15' E 004°22'0 0.0
2018-Feb-21 09:59N 51°15' E 004°22'0 0.0
2018-Feb-21 09:29N 51°15' E 004°22'0 0.0
2018-Feb-21 08:59N 51°15' E 004°22'0 0.0
2018-Feb-21 08:29N 51°15' E 004°22'0 0.0
2018-Feb-21 07:59N 51°15' E 004°22'0 0.0
2018-Feb-21 07:29N 51°15' E 004°22'0 0.0
2018-Feb-21 06:59N 51°15' E 004°22'0 0.0
2018-Feb-21 06:29N 51°15' E 004°22'0 0.0
2018-Feb-21 05:59N 51°15' E 004°22'0 0.0
2018-Feb-21 05:29N 51°15' E 004°22'0 0.0
2018-Feb-21 04:56N 51°15' E 004°22'0 0.0
2018-Feb-21 04:29N 51°15' E 004°22'0 0.0
2018-Feb-21 03:59N 51°15' E 004°22'0 0.0
2018-Feb-21 03:29N 51°15' E 004°22'0 0.0
2018-Feb-21 02:59N 51°15' E 004°22'0 0.0
2018-Feb-21 02:29N 51°15' E 004°22'0 0.0
2018-Feb-21 01:59N 51°15' E 004°22'0 0.0
2018-Feb-21 01:30N 51°15' E 004°22'0 0.0
2018-Feb-21 00:59N 51°15' E 004°22'0 0.0
2018-Feb-21 00:29N 51°15' E 004°22'0 0.0
2018-Feb-20 23:59N 51°15' E 004°22'0 0.0
2018-Feb-20 23:29N 51°15' E 004°22'0 0.0
2018-Feb-20 22:59N 51°15' E 004°22'0 0.0
2018-Feb-20 22:29N 51°15' E 004°22'0 0.0
2018-Feb-20 21:56N 51°15' E 004°22'0 0.0
2018-Feb-20 21:29N 51°15' E 004°22'0 0.0
2018-Feb-20 20:59N 51°15' E 004°22'0 0.0
2018-Feb-20 20:29N 51°15' E 004°22'0 0.0
2018-Feb-20 19:59N 51°15' E 004°22'0 0.0
2018-Feb-20 19:29N 51°15' E 004°22'0 0.0
2018-Feb-20 18:59N 51°15' E 004°22'0 0.0
2018-Feb-20 18:29N 51°15' E 004°22'0 0.0
2018-Feb-20 17:59N 51°15' E 004°22'0 0.0
2018-Feb-20 17:23N 51°15' E 004°22'0 0.0
2018-Feb-20 16:59N 51°15' E 004°22'0 0.0
2018-Feb-20 16:29N 51°15' E 004°22'0 0.0
2018-Feb-20 15:59N 51°15' E 004°22'0 0.0
2018-Feb-20 15:29N 51°15' E 004°22'0 0.0
2018-Feb-20 14:59N 51°15' E 004°22'0 0.0
2018-Feb-20 14:26N 51°15' E 004°22'0 0.0
2018-Feb-20 13:59N 51°15' E 004°22'0 0.0
2018-Feb-20 13:29N 51°15' E 004°22'0 0.0
2018-Feb-20 12:59N 51°15' E 004°22'0 0.0
2018-Feb-20 12:29N 51°15' E 004°22'1 2.3
2018-Feb-20 12:00N 51°16' E 004°20'3 6.0
2018-Feb-20 11:30N 51°19' E 004°19'0 0.0
2018-Feb-19 13:07N 51°19' E 004°18'0 0.0
2018-Feb-19 12:56N 51°19' E 004°18'0 0.0
2018-Feb-19 12:30N 51°19' E 004°18'0 0.0
2018-Feb-19 12:00N 51°19' E 004°18'1 1.4
2018-Feb-19 11:30N 51°18' E 004°19'2 3.5
2018-Feb-19 11:00N 51°17' E 004°20'0 0.0
2018-Feb-19 10:31N 51°17' E 004°20'0 0.9
2018-Feb-19 10:00N 51°17' E 004°19'2 4.8
2018-Feb-19 09:30N 51°17' E 004°16'1 1.8
2018-Feb-19 08:59N 51°17' E 004°15'0 0.0
2018-Feb-19 08:20N 51°17' E 004°15'0 1.5
2018-Feb-19 08:00N 51°16' E 004°14'1 1.2
2018-Feb-19 07:29N 51°17' E 004°14'0 0.0
2018-Feb-19 06:56N 51°17' E 004°14'0 0.0
2018-Feb-19 06:26N 51°17' E 004°14'0 0.0
2018-Feb-19 05:59N 51°17' E 004°14'0 0.0
2018-Feb-19 05:23N 51°17' E 004°14'0 0.0
2018-Feb-19 04:53N 51°17' E 004°14'0 0.0
2018-Feb-18 06:05N 51°17' E 004°14'0 0.0
2018-Feb-18 05:53N 51°17' E 004°14'0 0.0
2018-Feb-18 04:47N 51°17' E 004°14'0 0.0
2018-Feb-18 03:53N 51°17' E 004°14'0 0.0
2018-Feb-18 03:23N 51°17' E 004°14'0 0.0
2018-Feb-18 02:59N 51°17' E 004°14'0 0.0
2018-Feb-18 01:23N 51°17' E 004°14'0 0.0
2018-Feb-18 00:56N 51°17' E 004°14'0 0.0
2018-Feb-17 23:44N 51°17' E 004°14'0 0.0
2018-Feb-17 23:29N 51°17' E 004°14'0 0.9
2018-Feb-17 23:00N 51°17' E 004°14'1 1.3
2018-Feb-17 22:28N 51°17' E 004°15'0 0.2
2018-Feb-17 21:58N 51°17' E 004°15'2 3.3
2018-Feb-17 21:30N 51°18' E 004°16'3 5.3
2018-Feb-17 21:00N 51°21' E 004°17'0 0.2
2018-Feb-17 20:30N 51°21' E 004°17'0 0.0
2018-Feb-17 20:00N 51°21' E 004°17'0 0.5
2018-Feb-17 19:28N 51°21' E 004°18'0 0.8
2018-Feb-17 18:58N 51°21' E 004°18'0 0.0
2018-Feb-17 15:55N 51°21' E 004°18'0 0.0
2018-Feb-17 12:31N 51°21' E 004°18'0 0.0
2018-Feb-17 12:01N 51°21' E 004°18'0 0.0
2018-Feb-17 11:55N 51°21' E 004°18'0 0.0
2018-Feb-17 11:28N 51°21' E 004°18'0 0.0
2018-Feb-17 10:55N 51°21' E 004°18'0 0.0
2018-Feb-17 10:28N 51°21' E 004°18'0 0.0
2018-Feb-17 09:58N 51°21' E 004°18'0 0.0
2018-Feb-17 09:28N 51°21' E 004°18'0 0.0
2018-Feb-17 08:58N 51°21' E 004°18'0 0.0
2018-Feb-17 08:28N 51°21' E 004°18'0 0.0
2018-Feb-17 07:55N 51°21' E 004°18'0 0.0
2018-Feb-17 07:28N 51°21' E 004°18'0 0.0
2018-Feb-17 06:52N 51°21' E 004°18'0 0.0
2018-Feb-17 06:25N 51°21' E 004°18'0 0.0
2018-Feb-17 05:58N 51°21' E 004°18'0 0.0
2018-Feb-17 05:28N 51°21' E 004°18'0 0.0
2018-Feb-17 04:49N 51°21' E 004°18'0 0.0
2018-Feb-17 04:25N 51°21' E 004°18'0 0.0
2018-Feb-17 03:58N 51°21' E 004°18'0 0.0
2018-Feb-17 03:25N 51°21' E 004°18'0 0.0
2018-Feb-17 02:58N 51°21' E 004°18'0 0.0
2018-Feb-17 02:28N 51°21' E 004°18'0 0.0
2018-Feb-17 01:55N 51°21' E 004°18'0 0.0
2018-Feb-17 01:25N 51°21' E 004°18'0 0.0
2018-Feb-17 00:58N 51°21' E 004°18'0 0.0
2018-Feb-17 00:25N 51°21' E 004°18'0 0.0
2018-Feb-16 23:58N 51°21' E 004°18'0 0.0
2018-Feb-16 23:19N 51°21' E 004°18'0 0.0
2018-Feb-16 22:49N 51°21' E 004°18'0 0.0
2018-Feb-16 22:19N 51°21' E 004°18'0 0.0
2018-Feb-16 21:46N 51°21' E 004°18'0 0.0
2018-Feb-16 21:28N 51°21' E 004°18'0 0.0
2018-Feb-16 20:49N 51°21' E 004°18'0 0.0
2018-Feb-16 20:19N 51°21' E 004°18'0 0.0
2018-Feb-16 19:58N 51°21' E 004°18'0 0.0
2018-Feb-16 19:28N 51°21' E 004°18'0 0.0
2018-Feb-16 18:55N 51°21' E 004°18'0 0.0
2018-Feb-16 18:25N 51°21' E 004°18'0 0.0
2018-Feb-16 17:46N 51°21' E 004°18'0 0.0
2018-Feb-16 17:25N 51°21' E 004°18'0 0.0
2018-Feb-16 16:58N 51°21' E 004°18'0 0.0
2018-Feb-16 16:22N 51°21' E 004°18'0 0.0
2018-Feb-16 15:59N 51°21' E 004°18'0 0.0
2018-Feb-16 15:28N 51°21' E 004°18'0 0.0
2018-Feb-16 14:55N 51°21' E 004°18'0 0.0
2018-Feb-16 14:13N 51°21' E 004°18'0 0.0
2018-Feb-16 13:49N 51°21' E 004°18'0 0.0
2018-Feb-16 13:22N 51°21' E 004°18'0 0.0
2018-Feb-16 12:55N 51°21' E 004°18'0 0.0
2018-Feb-16 12:28N 51°21' E 004°18'0 0.0
2018-Feb-16 11:58N 51°21' E 004°18'0 0.0
2018-Feb-16 11:28N 51°21' E 004°18'0 0.0
2018-Feb-16 10:52N 51°21' E 004°18'0 0.0
2018-Feb-16 10:25N 51°21' E 004°18'0 0.0
2018-Feb-16 09:58N 51°21' E 004°18'0 0.0
2018-Feb-16 09:28N 51°21' E 004°18'0 0.0
2018-Feb-16 08:58N 51°21' E 004°18'0 0.0
2018-Feb-16 08:28N 51°21' E 004°18'0 0.0
2018-Feb-16 07:55N 51°21' E 004°18'0 0.0
2018-Feb-16 07:28N 51°21' E 004°18'0 0.0
2018-Feb-16 06:58N 51°21' E 004°18'0 0.0
2018-Feb-16 06:28N 51°21' E 004°18'0 0.0
2018-Feb-16 05:58N 51°21' E 004°18'0 0.0
2018-Feb-16 05:28N 51°21' E 004°18'0 0.0
2018-Feb-16 04:52N 51°21' E 004°18'0 0.0
2018-Feb-16 04:25N 51°21' E 004°18'0 0.0
2018-Feb-16 03:52N 51°21' E 004°18'0 0.0
2018-Feb-16 03:28N 51°21' E 004°18'0 0.0
2018-Feb-16 02:55N 51°21' E 004°18'0 0.0
2018-Feb-16 02:28N 51°21' E 004°18'0 0.0
2018-Feb-16 01:52N 51°21' E 004°18'0 0.0
2018-Feb-16 01:25N 51°21' E 004°18'0 0.0
2018-Feb-16 00:58N 51°21' E 004°18'0 0.0
2018-Feb-16 00:13N 51°21' E 004°18'0 0.0
2018-Feb-15 23:58N 51°21' E 004°18'0 0.0
2018-Feb-15 23:19N 51°21' E 004°18'0 0.0
2018-Feb-15 22:52N 51°21' E 004°18'0 0.0
2018-Feb-15 22:28N 51°21' E 004°18'0 0.0
2018-Feb-15 21:58N 51°21' E 004°18'0 0.0
2018-Feb-15 21:28N 51°21' E 004°18'0 0.0
2018-Feb-15 20:58N 51°21' E 004°18'0 0.0
2018-Feb-15 20:28N 51°21' E 004°18'0 0.0
2018-Feb-15 19:58N 51°21' E 004°18'0 0.0
2018-Feb-15 19:25N 51°21' E 004°18'0 0.0
2018-Feb-15 18:55N 51°21' E 004°18'0 0.0
2018-Feb-15 18:19N 51°21' E 004°18'0 0.0
2018-Feb-15 17:58N 51°21' E 004°18'0 1.0
2018-Feb-15 17:30N 51°21' E 004°18'4 7.1
2018-Feb-15 17:01N 51°17' E 004°20'2 4.6
2018-Feb-15 16:30N 51°15' E 004°22'1 1.4
2018-Feb-15 15:59N 51°15' E 004°23'0 0.0
2018-Feb-15 15:29N 51°15' E 004°23'0 0.0
2018-Feb-15 14:59N 51°15' E 004°23'0 0.0
2018-Feb-15 14:29N 51°15' E 004°23'0 0.0
2018-Feb-15 13:59N 51°15' E 004°23'0 0.0
2018-Feb-15 13:29N 51°15' E 004°23'0 0.0
2018-Feb-15 12:59N 51°15' E 004°23'0 0.0
2018-Feb-15 12:29N 51°15' E 004°23'0 0.0
2018-Feb-15 11:59N 51°15' E 004°23'0 0.0
2018-Feb-15 11:29N 51°15' E 004°23'0 0.0
2018-Feb-15 10:59N 51°15' E 004°23'0 0.0
2018-Feb-15 10:29N 51°15' E 004°23'0 0.0
2018-Feb-15 09:59N 51°15' E 004°23'0 0.0
2018-Feb-15 09:29N 51°15' E 004°23'0 0.0
2018-Feb-15 08:59N 51°15' E 004°23'0 0.0
2018-Feb-15 08:29N 51°15' E 004°23'0 0.0
2018-Feb-15 07:59N 51°15' E 004°23'0 0.0
2018-Feb-15 07:29N 51°15' E 004°23'0 0.0
2018-Feb-15 06:59N 51°15' E 004°23'0 0.0
2018-Feb-15 06:20N 51°15' E 004°23'0 0.0
2018-Feb-15 05:59N 51°15' E 004°23'0 0.0
2018-Feb-15 05:29N 51°15' E 004°23'0 0.0
2018-Feb-15 04:59N 51°15' E 004°23'0 0.0
2018-Feb-15 04:29N 51°15' E 004°23'0 0.0
2018-Feb-15 03:59N 51°15' E 004°23'0 0.0
2018-Feb-15 03:29N 51°15' E 004°23'0 0.0
2018-Feb-15 02:59N 51°15' E 004°23'0 0.0
2018-Feb-15 02:29N 51°15' E 004°23'0 0.0
2018-Feb-15 01:59N 51°15' E 004°23'0 0.0
2018-Feb-15 01:29N 51°15' E 004°23'0 0.0
2018-Feb-15 00:50N 51°15' E 004°23'0 0.0
2018-Feb-15 00:26N 51°15' E 004°23'0 0.0
2018-Feb-14 23:59N 51°15' E 004°23'0 0.0
2018-Feb-14 23:29N 51°15' E 004°23'0 0.0
2018-Feb-14 22:56N 51°15' E 004°23'0 0.0
2018-Feb-14 22:29N 51°15' E 004°23'0 0.0
2018-Feb-14 21:59N 51°15' E 004°23'0 0.0
2018-Feb-14 21:26N 51°15' E 004°23'0 0.0
2018-Feb-14 20:56N 51°15' E 004°23'0 0.0
2018-Feb-14 20:29N 51°15' E 004°23'0 0.0
2018-Feb-14 19:56N 51°15' E 004°23'0 0.0
2018-Feb-14 19:29N 51°15' E 004°23'0 0.0
2018-Feb-14 18:59N 51°15' E 004°23'0 0.0
2018-Feb-14 18:26N 51°15' E 004°23'0 0.0
2018-Feb-14 17:59N 51°15' E 004°23'0 0.0
2018-Feb-14 17:26N 51°15' E 004°23'0 0.0
2018-Feb-14 16:56N 51°15' E 004°23'0 0.0
2018-Feb-14 16:29N 51°15' E 004°23'0 0.0
2018-Feb-14 15:59N 51°15' E 004°23'0 0.0
2018-Feb-14 15:29N 51°15' E 004°23'0 0.0
2018-Feb-14 14:59N 51°15' E 004°23'0 0.0
2018-Feb-14 14:29N 51°15' E 004°23'0 0.0
2018-Feb-14 13:59N 51°15' E 004°23'0 0.0
2018-Feb-14 13:29N 51°15' E 004°23'0 0.0
2018-Feb-14 12:59N 51°15' E 004°23'0 0.0
2018-Feb-14 12:29N 51°15' E 004°23'0 0.0
2018-Feb-14 11:59N 51°15' E 004°23'0 0.0
2018-Feb-14 11:29N 51°15' E 004°23'0 0.0
2018-Feb-14 10:59N 51°15' E 004°23'0 0.0
2018-Feb-14 10:29N 51°15' E 004°23'0 0.0
2018-Feb-14 09:59N 51°15' E 004°23'0 0.0
2018-Feb-14 09:29N 51°15' E 004°23'0 0.0
2018-Feb-14 08:56N 51°15' E 004°23'0 0.0
2018-Feb-14 08:29N 51°15' E 004°23'0 0.0
2018-Feb-14 07:59N 51°15' E 004°23'0 0.0
2018-Feb-14 07:26N 51°15' E 004°23'0 0.0
2018-Feb-14 06:59N 51°15' E 004°23'0 0.0
2018-Feb-14 06:29N 51°15' E 004°23'0 0.0
2018-Feb-14 05:59N 51°15' E 004°23'0 0.0
2018-Feb-14 05:29N 51°15' E 004°23'0 0.0
2018-Feb-14 04:59N 51°15' E 004°23'0 0.0
2018-Feb-14 04:29N 51°15' E 004°23'0 0.0
2018-Feb-14 03:56N 51°15' E 004°23'0 0.0
2018-Feb-14 03:29N 51°15' E 004°23'0 0.0
2018-Feb-14 02:59N 51°15' E 004°23'0 0.0
2018-Feb-14 02:29N 51°15' E 004°23'0 0.0
2018-Feb-14 01:59N 51°15' E 004°23'0 0.0
2018-Feb-14 01:29N 51°15' E 004°23'0 0.0
2018-Feb-14 00:59N 51°15' E 004°23'0 0.0
2018-Feb-14 00:29N 51°15' E 004°23'0 0.0
2018-Feb-13 23:59N 51°15' E 004°23'0 0.0
2018-Feb-13 23:29N 51°15' E 004°23'  
Track history (hours):
 
Tides and Currents Weather Stations Pressure Air Temp Water Temp Dewpoint Dewpoint Depression Visibility Wind Speed Wind Dir Waves Ship Positions

Trans Adriatic

Last reported at 2018-Feb-23 23:00 UTC. Time now 2018-Feb-24 00:08 UTC.
Position N 51°36' E 003°22'.

Length 123 m; draft 7.5 m.

Type: Tanker. MMSI: 311041700.

Date/timePositionNaut miles runAvg speedWind from/ knotsBaromVisibWave heightAir tempDewpointWater temp
2018-Feb-23 23:00N 51°36' E 003°22'612.1
2018-Feb-23 22:30N 51°31' E 003°26'613.0
2018-Feb-23 22:01N 51°27' E 003°34'611.9
2018-Feb-23 21:30N 51°24' E 003°43'713.1
2018-Feb-23 21:00N 51°21' E 003°52'713.2
2018-Feb-23 20:30N 51°26' E 003°58'5 9.2
2018-Feb-23 20:00N 51°23' E 004°03'510.0
2018-Feb-23 19:30N 51°24' E 004°11'4 8.7
2018-Feb-23 19:00N 51°21' E 004°16'1 1.5
2018-Feb-23 18:31N 51°21' E 004°17'0 0.0
2018-Feb-23 18:01N 51°21' E 004°17'0 0.5
2018-Feb-23 17:30N 51°21' E 004°18'2 4.3
2018-Feb-23 17:00N 51°19' E 004°19'3 5.3
2018-Feb-23 16:30N 51°16' E 004°20'1 2.3
2018-Feb-23 15:59N 51°15' E 004°22'0 0.0
2018-Feb-23 15:29N 51°15' E 004°22'0 0.0
2018-Feb-23 14:59N 51°15' E 004°22'0 0.0
2018-Feb-23 14:29N 51°15' E 004°22'0 0.0
2018-Feb-23 13:59N 51°15' E 004°22'0 0.0
2018-Feb-23 13:29N 51°15' E 004°22'0 0.0
2018-Feb-23 12:59N 51°15' E 004°22'0 0.0
2018-Feb-23 12:29N 51°15' E 004°22'0 0.0
2018-Feb-23 11:59N 51°15' E 004°22'0 0.0
2018-Feb-23 11:29N 51°15' E 004°22'0 0.0
2018-Feb-23 10:59N 51°15' E 004°22'0 0.0
2018-Feb-23 10:26N 51°15' E 004°22'0 0.0
2018-Feb-23 09:59N 51°15' E 004°22'0 0.0
2018-Feb-23 09:29N 51°15' E 004°22'0 0.0
2018-Feb-23 08:59N 51°15' E 004°22'0 0.0
2018-Feb-23 08:29N 51°15' E 004°22'0 0.0
2018-Feb-23 07:59N 51°15' E 004°22'0 0.0
2018-Feb-23 07:26N 51°15' E 004°22'0 0.0
2018-Feb-23 06:59N 51°15' E 004°22'0 0.0
2018-Feb-23 06:29N 51°15' E 004°22'0 0.0
2018-Feb-23 05:59N 51°15' E 004°22'0 0.0
2018-Feb-23 05:29N 51°15' E 004°22'0 0.0
2018-Feb-23 04:59N 51°15' E 004°22'0 0.0
2018-Feb-23 04:29N 51°15' E 004°22'0 0.0
2018-Feb-23 03:59N 51°15' E 004°22'0 0.0
2018-Feb-23 03:26N 51°15' E 004°22'0 0.0
2018-Feb-23 02:59N 51°15' E 004°22'0 0.0
2018-Feb-23 02:29N 51°15' E 004°22'0 0.0
2018-Feb-23 01:59N 51°15' E 004°22'0 0.0
2018-Feb-23 01:26N 51°15' E 004°22'0 0.0
2018-Feb-23 00:59N 51°15' E 004°22'0 0.0
2018-Feb-23 00:29N 51°15' E 004°22'0 0.0
2018-Feb-22 23:59N 51°15' E 004°22'0 0.0
2018-Feb-22 23:29N 51°15' E 004°22'0 0.0
2018-Feb-22 22:56N 51°15' E 004°22'0 0.0
2018-Feb-22 22:29N 51°15' E 004°22'0 0.0
2018-Feb-22 21:14N 51°15' E 004°22'0 0.0
2018-Feb-22 20:59N 51°15' E 004°22'0 0.0
2018-Feb-22 20:26N 51°15' E 004°22'0 0.0
2018-Feb-22 19:59N 51°15' E 004°22'0 0.0
2018-Feb-22 19:29N 51°15' E 004°22'0 0.0
2018-Feb-22 18:59N 51°15' E 004°22'0 0.0
2018-Feb-22 18:29N 51°15' E 004°22'0 0.0
2018-Feb-22 17:59N 51°15' E 004°22'0 0.0
2018-Feb-22 17:29N 51°15' E 004°22'0 0.0
2018-Feb-22 16:59N 51°15' E 004°22'0 0.0
2018-Feb-22 16:29N 51°15' E 004°22'0 0.0
2018-Feb-22 15:59N 51°15' E 004°22'0 0.0
2018-Feb-22 15:29N 51°15' E 004°22'0 0.0
2018-Feb-22 14:56N 51°15' E 004°22'0 0.0
2018-Feb-22 14:26N 51°15' E 004°22'0 0.0
2018-Feb-22 13:59N 51°15' E 004°22'0 0.0
2018-Feb-22 13:29N 51°15' E 004°22'0 0.0
2018-Feb-22 12:59N 51°15' E 004°22'0 0.0
2018-Feb-22 12:29N 51°15' E 004°22'0 0.0
2018-Feb-22 11:59N 51°15' E 004°22'0 0.0
2018-Feb-22 11:26N 51°15' E 004°22'0 0.0
2018-Feb-22 10:59N 51°15' E 004°22'0 0.0
2018-Feb-22 10:29N 51°15' E 004°22'0 0.0
2018-Feb-22 09:59N 51°15' E 004°22'0 0.0
2018-Feb-22 09:26N 51°15' E 004°22'0 0.0
2018-Feb-22 08:59N 51°15' E 004°22'0 0.0
2018-Feb-22 08:29N 51°15' E 004°22'0 0.0
2018-Feb-22 07:56N 51°15' E 004°22'0 0.0
2018-Feb-22 07:29N 51°15' E 004°22'0 0.0
2018-Feb-22 06:59N 51°15' E 004°22'0 0.0
2018-Feb-22 06:29N 51°15' E 004°22'0 0.0
2018-Feb-22 05:59N 51°15' E 004°22'0 0.0
2018-Feb-22 05:29N 51°15' E 004°22'0 0.0
2018-Feb-22 04:56N 51°15' E 004°22'0 0.0
2018-Feb-22 04:29N 51°15' E 004°22'0 0.0
2018-Feb-22 03:59N 51°15' E 004°22'0 0.0
2018-Feb-22 03:29N 51°15' E 004°22'0 0.0
2018-Feb-22 02:59N 51°15' E 004°22'0 0.0
2018-Feb-22 02:29N 51°15' E 004°22'0 0.0
2018-Feb-22 01:59N 51°15' E 004°22'0 0.0
2018-Feb-22 01:29N 51°15' E 004°22'0 0.0
2018-Feb-22 00:59N 51°15' E 004°22'0 0.0
2018-Feb-22 00:29N 51°15' E 004°22'0 0.0
2018-Feb-21 23:56N 51°15' E 004°22'0 0.0
2018-Feb-21 23:29N 51°15' E 004°22'0 0.0
2018-Feb-21 22:59N 51°15' E 004°22'0 0.0
2018-Feb-21 22:29N 51°15' E 004°22'0 0.0
2018-Feb-21 21:59N 51°15' E 004°22'0 0.0
2018-Feb-21 21:29N 51°15' E 004°22'0 0.0
2018-Feb-21 20:56N 51°15' E 004°22'0 0.0
2018-Feb-21 20:29N 51°15' E 004°22'0 0.0
2018-Feb-21 19:59N 51°15' E 004°22'0 0.0
2018-Feb-21 19:29N 51°15' E 004°22'0 0.0
2018-Feb-21 18:59N 51°15' E 004°22'0 0.0
2018-Feb-21 18:26N 51°15' E 004°22'0 0.0
2018-Feb-21 17:59N 51°15' E 004°22'0 0.0
2018-Feb-21 17:29N 51°15' E 004°22'0 0.0
2018-Feb-21 16:56N 51°15' E 004°22'0 0.0
2018-Feb-21 16:29N 51°15' E 004°22'0 0.0
2018-Feb-21 15:59N 51°15' E 004°22'0 0.0
2018-Feb-21 15:26N 51°15' E 004°22'0 0.0
2018-Feb-21 14:59N 51°15' E 004°22'0 0.0
2018-Feb-21 14:29N 51°15' E 004°22'0 0.0
2018-Feb-21 13:59N 51°15' E 004°22'0 0.0
2018-Feb-21 13:29N 51°15' E 004°22'0 0.0
2018-Feb-21 12:56N 51°15' E 004°22'0 0.0
2018-Feb-21 12:29N 51°15' E 004°22'0 0.0
2018-Feb-21 11:59N 51°15' E 004°22'0 0.0
2018-Feb-21 11:29N 51°15' E 004°22'0 0.0
2018-Feb-21 10:56N 51°15' E 004°22'0 0.0
2018-Feb-21 10:27N 51°15' E 004°22'0 0.0
2018-Feb-21 09:59N 51°15' E 004°22'0 0.0
2018-Feb-21 09:29N 51°15' E 004°22'0 0.0
2018-Feb-21 08:59N 51°15' E 004°22'0 0.0
2018-Feb-21 08:29N 51°15' E 004°22'0 0.0
2018-Feb-21 07:59N 51°15' E 004°22'0 0.0
2018-Feb-21 07:29N 51°15' E 004°22'0 0.0
2018-Feb-21 06:59N 51°15' E 004°22'0 0.0
2018-Feb-21 06:29N 51°15' E 004°22'0 0.0
2018-Feb-21 05:59N 51°15' E 004°22'0 0.0
2018-Feb-21 05:29N 51°15' E 004°22'0 0.0
2018-Feb-21 04:56N 51°15' E 004°22'0 0.0
2018-Feb-21 04:29N 51°15' E 004°22'0 0.0
2018-Feb-21 03:59N 51°15' E 004°22'0 0.0
2018-Feb-21 03:29N 51°15' E 004°22'0 0.0
2018-Feb-21 02:59N 51°15' E 004°22'0 0.0
2018-Feb-21 02:29N 51°15' E 004°22'0 0.0
2018-Feb-21 01:59N 51°15' E 004°22'0 0.0
2018-Feb-21 01:30N 51°15' E 004°22'0 0.0
2018-Feb-21 00:59N 51°15' E 004°22'0 0.0
2018-Feb-21 00:29N 51°15' E 004°22'0 0.0
2018-Feb-20 23:59N 51°15' E 004°22'0 0.0
2018-Feb-20 23:29N 51°15' E 004°22'0 0.0
2018-Feb-20 22:59N 51°15' E 004°22'0 0.0
2018-Feb-20 22:29N 51°15' E 004°22'0 0.0
2018-Feb-20 21:56N 51°15' E 004°22'0 0.0
2018-Feb-20 21:29N 51°15' E 004°22'0 0.0
2018-Feb-20 20:59N 51°15' E 004°22'0 0.0
2018-Feb-20 20:29N 51°15' E 004°22'0 0.0
2018-Feb-20 19:59N 51°15' E 004°22'0 0.0
2018-Feb-20 19:29N 51°15' E 004°22'0 0.0
2018-Feb-20 18:59N 51°15' E 004°22'0 0.0
2018-Feb-20 18:29N 51°15' E 004°22'0 0.0
2018-Feb-20 17:59N 51°15' E 004°22'0 0.0
2018-Feb-20 17:23N 51°15' E 004°22'0 0.0
2018-Feb-20 16:59N 51°15' E 004°22'0 0.0
2018-Feb-20 16:29N 51°15' E 004°22'0 0.0
2018-Feb-20 15:59N 51°15' E 004°22'0 0.0
2018-Feb-20 15:29N 51°15' E 004°22'0 0.0
2018-Feb-20 14:59N 51°15' E 004°22'0 0.0
2018-Feb-20 14:26N 51°15' E 004°22'0 0.0
2018-Feb-20 13:59N 51°15' E 004°22'0 0.0
2018-Feb-20 13:29N 51°15' E 004°22'0 0.0
2018-Feb-20 12:59N 51°15' E 004°22'0 0.0
2018-Feb-20 12:29N 51°15' E 004°22'1 2.3
2018-Feb-20 12:00N 51°16' E 004°20'3 6.0
2018-Feb-20 11:30N 51°19' E 004°19'0 0.0
2018-Feb-19 13:07N 51°19' E 004°18'0 0.0
2018-Feb-19 12:56N 51°19' E 004°18'0 0.0
2018-Feb-19 12:30N 51°19' E 004°18'0 0.0
2018-Feb-19 12:00N 51°19' E 004°18'1 1.4
2018-Feb-19 11:30N 51°18' E 004°19'2 3.5
2018-Feb-19 11:00N 51°17' E 004°20'0 0.0
2018-Feb-19 10:31N 51°17' E 004°20'0 0.9
2018-Feb-19 10:00N 51°17' E 004°19'2 4.8
2018-Feb-19 09:30N 51°17' E 004°16'1 1.8
2018-Feb-19 08:59N 51°17' E 004°15'0 0.0
2018-Feb-19 08:20N 51°17' E 004°15'0 1.5
2018-Feb-19 08:00N 51°16' E 004°14'1 1.2
2018-Feb-19 07:29N 51°17' E 004°14'0 0.0
2018-Feb-19 06:56N 51°17' E 004°14'0 0.0
2018-Feb-19 06:26N 51°17' E 004°14'0 0.0
2018-Feb-19 05:59N 51°17' E 004°14'0 0.0
2018-Feb-19 05:23N 51°17' E 004°14'0 0.0
2018-Feb-19 04:53N 51°17' E 004°14'0 0.0
2018-Feb-18 06:05N 51°17' E 004°14'0 0.0
2018-Feb-18 05:53N 51°17' E 004°14'0 0.0
2018-Feb-18 04:47N 51°17' E 004°14'0 0.0
2018-Feb-18 03:53N 51°17' E 004°14'0 0.0
2018-Feb-18 03:23N 51°17' E 004°14'0 0.0
2018-Feb-18 02:59N 51°17' E 004°14'0 0.0
2018-Feb-18 01:23N 51°17' E 004°14'0 0.0
2018-Feb-18 00:56N 51°17' E 004°14'0 0.0
2018-Feb-17 23:44N 51°17' E 004°14'0 0.0
2018-Feb-17 23:29N 51°17' E 004°14'0 0.9
2018-Feb-17 23:00N 51°17' E 004°14'1 1.3
2018-Feb-17 22:28N 51°17' E 004°15'0 0.2
2018-Feb-17 21:58N 51°17' E 004°15'2 3.3
2018-Feb-17 21:30N 51°18' E 004°16'3 5.3
2018-Feb-17 21:00N 51°21' E 004°17'0 0.2
2018-Feb-17 20:30N 51°21' E 004°17'0 0.0
2018-Feb-17 20:00N 51°21' E 004°17'0 0.5
2018-Feb-17 19:28N 51°21' E 004°18'0 0.8
2018-Feb-17 18:58N 51°21' E 004°18'0 0.0
2018-Feb-17 15:55N 51°21' E 004°18'0 0.0
2018-Feb-17 12:31N 51°21' E 004°18'0 0.0
2018-Feb-17 12:01N 51°21' E 004°18'0 0.0
2018-Feb-17 11:55N 51°21' E 004°18'0 0.0
2018-Feb-17 11:28N 51°21' E 004°18'0 0.0
2018-Feb-17 10:55N 51°21' E 004°18'0 0.0
2018-Feb-17 10:28N 51°21' E 004°18'0 0.0
2018-Feb-17 09:58N 51°21' E 004°18'0 0.0
2018-Feb-17 09:28N 51°21' E 004°18'0 0.0
2018-Feb-17 08:58N 51°21' E 004°18'0 0.0
2018-Feb-17 08:28N 51°21' E 004°18'0 0.0
2018-Feb-17 07:55N 51°21' E 004°18'0 0.0
2018-Feb-17 07:28N 51°21' E 004°18'0 0.0
2018-Feb-17 06:52N 51°21' E 004°18'0 0.0
2018-Feb-17 06:25N 51°21' E 004°18'0 0.0
2018-Feb-17 05:58N 51°21' E 004°18'0 0.0
2018-Feb-17 05:28N 51°21' E 004°18'0 0.0
2018-Feb-17 04:49N 51°21' E 004°18'0 0.0
2018-Feb-17 04:25N 51°21' E 004°18'0 0.0
2018-Feb-17 03:58N 51°21' E 004°18'0 0.0
2018-Feb-17 03:25N 51°21' E 004°18'0 0.0
2018-Feb-17 02:58N 51°21' E 004°18'0 0.0
2018-Feb-17 02:28N 51°21' E 004°18'0 0.0
2018-Feb-17 01:55N 51°21' E 004°18'0 0.0
2018-Feb-17 01:25N 51°21' E 004°18'0 0.0
2018-Feb-17 00:58N 51°21' E 004°18'0 0.0
2018-Feb-17 00:25N 51°21' E 004°18'0 0.0
2018-Feb-16 23:58N 51°21' E 004°18'0 0.0
2018-Feb-16 23:19N 51°21' E 004°18'0 0.0
2018-Feb-16 22:49N 51°21' E 004°18'0 0.0
2018-Feb-16 22:19N 51°21' E 004°18'0 0.0
2018-Feb-16 21:46N 51°21' E 004°18'0 0.0
2018-Feb-16 21:28N 51°21' E 004°18'0 0.0
2018-Feb-16 20:49N 51°21' E 004°18'0 0.0
2018-Feb-16 20:19N 51°21' E 004°18'0 0.0
2018-Feb-16 19:58N 51°21' E 004°18'0 0.0
2018-Feb-16 19:28N 51°21' E 004°18'0 0.0
2018-Feb-16 18:55N 51°21' E 004°18'0 0.0
2018-Feb-16 18:25N 51°21' E 004°18'0 0.0
2018-Feb-16 17:46N 51°21' E 004°18'0 0.0
2018-Feb-16 17:25N 51°21' E 004°18'0 0.0
2018-Feb-16 16:58N 51°21' E 004°18'0 0.0
2018-Feb-16 16:22N 51°21' E 004°18'0 0.0
2018-Feb-16 15:59N 51°21' E 004°18'0 0.0
2018-Feb-16 15:28N 51°21' E 004°18'0 0.0
2018-Feb-16 14:55N 51°21' E 004°18'0 0.0
2018-Feb-16 14:13N 51°21' E 004°18'0 0.0
2018-Feb-16 13:49N 51°21' E 004°18'0 0.0
2018-Feb-16 13:22N 51°21' E 004°18'0 0.0
2018-Feb-16 12:55N 51°21' E 004°18'0 0.0
2018-Feb-16 12:28N 51°21' E 004°18'0 0.0
2018-Feb-16 11:58N 51°21' E 004°18'0 0.0
2018-Feb-16 11:28N 51°21' E 004°18'0 0.0
2018-Feb-16 10:52N 51°21' E 004°18'0 0.0
2018-Feb-16 10:25N 51°21' E 004°18'0 0.0
2018-Feb-16 09:58N 51°21' E 004°18'0 0.0
2018-Feb-16 09:28N 51°21' E 004°18'0 0.0
2018-Feb-16 08:58N 51°21' E 004°18'0 0.0
2018-Feb-16 08:28N 51°21' E 004°18'0 0.0
2018-Feb-16 07:55N 51°21' E 004°18'0 0.0
2018-Feb-16 07:28N 51°21' E 004°18'0 0.0
2018-Feb-16 06:58N 51°21' E 004°18'0 0.0
2018-Feb-16 06:28N 51°21' E 004°18'0 0.0
2018-Feb-16 05:58N 51°21' E 004°18'0 0.0
2018-Feb-16 05:28N 51°21' E 004°18'0 0.0
2018-Feb-16 04:52N 51°21' E 004°18'0 0.0
2018-Feb-16 04:25N 51°21' E 004°18'0 0.0
2018-Feb-16 03:52N 51°21' E 004°18'0 0.0
2018-Feb-16 03:28N 51°21' E 004°18'0 0.0
2018-Feb-16 02:55N 51°21' E 004°18'0 0.0
2018-Feb-16 02:28N 51°21' E 004°18'0 0.0
2018-Feb-16 01:52N 51°21' E 004°18'0 0.0
2018-Feb-16 01:25N 51°21' E 004°18'0 0.0
2018-Feb-16 00:58N 51°21' E 004°18'0 0.0
2018-Feb-16 00:13N 51°21' E 004°18'0 0.0
2018-Feb-15 23:58N 51°21' E 004°18'0 0.0
2018-Feb-15 23:19N 51°21' E 004°18'0 0.0
2018-Feb-15 22:52N 51°21' E 004°18'0 0.0
2018-Feb-15 22:28N 51°21' E 004°18'0 0.0
2018-Feb-15 21:58N 51°21' E 004°18'0 0.0
2018-Feb-15 21:28N 51°21' E 004°18'0 0.0
2018-Feb-15 20:58N 51°21' E 004°18'0 0.0
2018-Feb-15 20:28N 51°21' E 004°18'0 0.0
2018-Feb-15 19:58N 51°21' E 004°18'0 0.0
2018-Feb-15 19:25N 51°21' E 004°18'0 0.0
2018-Feb-15 18:55N 51°21' E 004°18'0 0.0
2018-Feb-15 18:19N 51°21' E 004°18'0 0.0
2018-Feb-15 17:58N 51°21' E 004°18'0 1.0
2018-Feb-15 17:30N 51°21' E 004°18'4 7.1
2018-Feb-15 17:01N 51°17' E 004°20'2 4.6
2018-Feb-15 16:30N 51°15' E 004°22'1 1.4
2018-Feb-15 15:59N 51°15' E 004°23'0 0.0
2018-Feb-15 15:29N 51°15' E 004°23'0 0.0
2018-Feb-15 14:59N 51°15' E 004°23'0 0.0
2018-Feb-15 14:29N 51°15' E 004°23'0 0.0
2018-Feb-15 13:59N 51°15' E 004°23'0 0.0
2018-Feb-15 13:29N 51°15' E 004°23'0 0.0
2018-Feb-15 12:59N 51°15' E 004°23'0 0.0
2018-Feb-15 12:29N 51°15' E 004°23'0 0.0
2018-Feb-15 11:59N 51°15' E 004°23'0 0.0
2018-Feb-15 11:29N 51°15' E 004°23'0 0.0
2018-Feb-15 10:59N 51°15' E 004°23'0 0.0
2018-Feb-15 10:29N 51°15' E 004°23'0 0.0
2018-Feb-15 09:59N 51°15' E 004°23'0 0.0
2018-Feb-15 09:29N 51°15' E 004°23'0 0.0
2018-Feb-15 08:59N 51°15' E 004°23'0 0.0
2018-Feb-15 08:29N 51°15' E 004°23'0 0.0
2018-Feb-15 07:59N 51°15' E 004°23'0 0.0
2018-Feb-15 07:29N 51°15' E 004°23'0 0.0
2018-Feb-15 06:59N 51°15' E 004°23'0 0.0
2018-Feb-15 06:20N 51°15' E 004°23'0 0.0
2018-Feb-15 05:59N 51°15' E 004°23'0 0.0
2018-Feb-15 05:29N 51°15' E 004°23'0 0.0
2018-Feb-15 04:59N 51°15' E 004°23'0 0.0
2018-Feb-15 04:29N 51°15' E 004°23'0 0.0
2018-Feb-15 03:59N 51°15' E 004°23'0 0.0
2018-Feb-15 03:29N 51°15' E 004°23'0 0.0
2018-Feb-15 02:59N 51°15' E 004°23'0 0.0
2018-Feb-15 02:29N 51°15' E 004°23'0 0.0
2018-Feb-15 01:59N 51°15' E 004°23'0 0.0
2018-Feb-15 01:29N 51°15' E 004°23'0 0.0
2018-Feb-15 00:50N 51°15' E 004°23'0 0.0
2018-Feb-15 00:26N 51°15' E 004°23'0 0.0
2018-Feb-14 23:59N 51°15' E 004°23'0 0.0
2018-Feb-14 23:29N 51°15' E 004°23'0 0.0
2018-Feb-14 22:56N 51°15' E 004°23'0 0.0
2018-Feb-14 22:29N 51°15' E 004°23'0 0.0
2018-Feb-14 21:59N 51°15' E 004°23'0 0.0
2018-Feb-14 21:26N 51°15' E 004°23'0 0.0
2018-Feb-14 20:56N 51°15' E 004°23'0 0.0
2018-Feb-14 20:29N 51°15' E 004°23'0 0.0
2018-Feb-14 19:56N 51°15' E 004°23'0 0.0
2018-Feb-14 19:29N 51°15' E 004°23'0 0.0
2018-Feb-14 18:59N 51°15' E 004°23'0 0.0
2018-Feb-14 18:26N 51°15' E 004°23'0 0.0
2018-Feb-14 17:59N 51°15' E 004°23'0 0.0
2018-Feb-14 17:26N 51°15' E 004°23'0 0.0
2018-Feb-14 16:56N 51°15' E 004°23'0 0.0
2018-Feb-14 16:29N 51°15' E 004°23'0 0.0
2018-Feb-14 15:59N 51°15' E 004°23'0 0.0
2018-Feb-14 15:29N 51°15' E 004°23'0 0.0
2018-Feb-14 14:59N 51°15' E 004°23'0 0.0
2018-Feb-14 14:29N 51°15' E 004°23'0 0.0
2018-Feb-14 13:59N 51°15' E 004°23'0 0.0
2018-Feb-14 13:29N 51°15' E 004°23'0 0.0
2018-Feb-14 12:59N 51°15' E 004°23'0 0.0
2018-Feb-14 12:29N 51°15' E 004°23'0 0.0
2018-Feb-14 11:59N 51°15' E 004°23'0 0.0
2018-Feb-14 11:29N 51°15' E 004°23'0 0.0
2018-Feb-14 10:59N 51°15' E 004°23'0 0.0
2018-Feb-14 10:29N 51°15' E 004°23'0 0.0
2018-Feb-14 09:59N 51°15' E 004°23'0 0.0
2018-Feb-14 09:29N 51°15' E 004°23'0 0.0
2018-Feb-14 08:56N 51°15' E 004°23'0 0.0
2018-Feb-14 08:29N 51°15' E 004°23'0 0.0
2018-Feb-14 07:59N 51°15' E 004°23'0 0.0
2018-Feb-14 07:26N 51°15' E 004°23'0 0.0
2018-Feb-14 06:59N 51°15' E 004°23'0 0.0
2018-Feb-14 06:29N 51°15' E 004°23'0 0.0
2018-Feb-14 05:59N 51°15' E 004°23'0 0.0
2018-Feb-14 05:29N 51°15' E 004°23'0 0.0
2018-Feb-14 04:59N 51°15' E 004°23'0 0.0
2018-Feb-14 04:29N 51°15' E 004°23'0 0.0
2018-Feb-14 03:56N 51°15' E 004°23'0 0.0
2018-Feb-14 03:29N 51°15' E 004°23'0 0.0
2018-Feb-14 02:59N 51°15' E 004°23'0 0.0
2018-Feb-14 02:29N 51°15' E 004°23'0 0.0
2018-Feb-14 01:59N 51°15' E 004°23'0 0.0
2018-Feb-14 01:29N 51°15' E 004°23'0 0.0
2018-Feb-14 00:59N 51°15' E 004°23'0 0.0
2018-Feb-14 00:29N 51°15' E 004°23'0 0.0
2018-Feb-13 23:59N 51°15' E 004°23'0 0.0
2018-Feb-13 23:29N 51°15' E 004°23'  

Dump ship's entire track history